Time;durP1;ratioP1;P1;durP2;ratioP2;P2;SDS_P1;SDS_P2;PMS_P1;PMS_P2;Temp;Humidity;BMP_temperature;BMP_pressure;BME280_temperature;BME280_humidity;BME280_pressure;Samples;Min_cycle;Max_cycle;Signal;HPM_P1;HPM_P2
2021/09/21 00:01:06;;;;;;;7.53;5.38;;;;;;;9.76;64.23;102303.22;5066941;28;20032;-76
2021/09/21 00:03:32;;;;;;;8.23;4.95;;;;;;;9.75;63.98;102304.28;5075952;28;20025;-76
2021/09/21 00:05:58;;;;;;;8.00;5.15;;;;;;;9.72;64.36;102302.03;5053581;28;20115;-76
2021/09/21 00:08:27;;;;;;;9.25;5.50;;;;;;;9.70;64.49;102297.88;5067706;28;20025;-75
2021/09/21 00:10:52;;;;;;;5.72;4.38;;;;;;;9.66;64.42;102299.41;5068845;28;20082;-75
2021/09/21 00:13:18;;;;;;;8.95;6.45;;;;;;;9.64;64.48;102294.19;5072809;28;20493;-74
2021/09/21 00:15:43;;;;;;;10.63;6.30;;;;;;;9.62;64.91;102290.03;5075717;28;20307;-75
2021/09/21 00:18:08;;;;;;;9.23;5.93;;;;;;;9.60;64.84;102294.84;5096093;28;20020;-75
2021/09/21 00:20:34;;;;;;;6.90;5.07;;;;;;;9.58;65.28;102303.28;5090984;28;20392;-74
2021/09/21 00:22:59;;;;;;;7.53;5.00;;;;;;;9.55;65.37;102301.84;5096055;28;20069;-74
2021/09/21 00:25:24;;;;;;;6.90;5.10;;;;;;;9.52;65.23;102302.31;5095041;28;20020;-75
2021/09/21 00:27:50;;;;;;;9.38;6.03;;;;;;;9.50;65.05;102298.16;5077700;28;20073;-75
2021/09/21 00:30:16;;;;;;;7.65;5.60;;;;;;;9.48;65.91;102297.53;5085932;28;20409;-75
2021/09/21 00:32:44;;;;;;;7.75;5.47;;;;;;;9.45;65.69;102309.72;5095723;28;20031;-75
2021/09/21 00:35:10;;;;;;;8.38;5.68;;;;;;;9.43;65.55;102313.72;5094935;28;20024;-75
2021/09/21 00:37:37;;;;;;;7.55;5.15;;;;;;;9.43;65.65;102313.72;5077839;28;20020;-75
2021/09/21 00:40:02;;;;;;;8.07;5.47;;;;;;;9.44;65.25;102315.38;5094050;28;20047;-75
2021/09/21 00:42:29;;;;;;;8.73;5.05;;;;;;;9.42;65.51;102307.44;5095687;28;20020;-75
2021/09/21 00:45:04;;;;;;;10.77;6.15;;;;;;;9.43;65.64;102316.44;5074640;28;20020;-75
2021/09/21 00:47:29;;;;;;;9.40;6.18;;;;;;;9.45;65.61;102314.31;5081367;28;20081;-75
2021/09/21 00:49:55;;;;;;;9.32;5.95;;;;;;;9.46;66.12;102313.25;5074475;28;20484;-75
2021/09/21 00:52:20;;;;;;;8.80;5.88;;;;;;;9.48;66.09;102313.88;5076772;28;20028;-75
2021/09/21 00:54:46;;;;;;;6.68;4.35;;;;;;;9.49;66.40;102307.34;5095138;28;20023;-75
2021/09/21 00:57:11;;;;;;;8.77;5.43;;;;;;;9.48;66.28;102314.69;5048266;28;20023;-75
2021/09/21 00:59:37;;;;;;;5.55;4.32;;;;;;;9.47;66.01;102314.94;5077241;28;20522;-75
2021/09/21 01:02:02;;;;;;;6.82;5.20;;;;;;;9.48;66.05;102316.59;5076047;28;20023;-75
2021/09/21 01:04:27;;;;;;;6.90;5.20;;;;;;;9.50;66.42;102326.19;5077258;28;20024;-75
2021/09/21 01:06:53;;;;;;;7.63;5.68;;;;;;;9.50;66.21;102326.19;5093601;28;20381;-75
2021/09/21 01:09:23;;;;;;;8.38;5.20;;;;;;;9.52;66.22;102328.66;5077187;28;20016;-76
2021/09/21 01:11:51;;;;;;;8.40;5.60;;;;;;;9.52;66.22;102334.13;5076155;28;20081;-74
2021/09/21 01:14:16;;;;;;;7.53;5.80;;;;;;;9.52;66.06;102334.13;5094162;28;20332;-75
2021/09/21 01:16:42;;;;;;;8.00;5.60;;;;;;;9.55;66.35;102333.69;5075889;28;20385;-75
2021/09/21 01:19:09;;;;;;;7.03;5.35;;;;;;;9.54;66.33;102335.56;5076080;28;20039;-75
2021/09/21 01:21:35;;;;;;;7.63;5.07;;;;;;;9.52;66.36;102328.66;5075224;28;20024;-75
2021/09/21 01:24:00;;;;;;;9.13;6.53;;;;;;;9.51;66.12;102327.03;5094685;28;20024;-76
2021/09/21 01:26:26;;;;;;;7.70;6.03;;;;;;;9.51;66.79;102324.28;5075708;28;20055;-75
2021/09/21 01:28:51;;;;;;;6.43;4.68;;;;;;;9.53;66.64;102314.03;5094631;28;20031;-75
2021/09/21 01:31:18;;;;;;;7.88;5.40;;;;;;;9.52;67.09;102324.09;5075609;28;20020;-74
2021/09/21 01:33:47;;;;;;;6.82;5.10;;;;;;;9.53;66.85;102314.03;5094504;28;20396;-75
2021/09/21 01:36:16;;;;;;;6.93;5.00;;;;;;;9.52;67.16;102309.63;5075471;28;20102;-75
2021/09/21 01:38:42;;;;;;;9.40;6.20;;;;;;;9.53;66.91;102300.41;5076534;28;20026;-75
2021/09/21 01:41:08;;;;;;;6.90;5.28;;;;;;;9.54;67.16;102294.72;5075519;28;20023;-75
2021/09/21 01:43:34;;;;;;;9.18;5.72;;;;;;;9.58;67.18;102291.56;5076398;28;20024;-75
2021/09/21 01:45:59;;;;;;;8.48;6.10;;;;;;;9.58;67.31;102278.75;5093195;28;20031;-75
2021/09/21 01:48:24;;;;;;;8.32;5.75;;;;;;;9.62;67.52;102290.03;5092786;28;20027;-76
2021/09/21 01:51:11;;;;;;;7.88;5.20;;;;;;;9.67;67.89;102285.53;5093365;28;20047;-75
2021/09/21 01:53:45;;;;;;;9.48;5.85;;;;;;;9.68;67.55;102279.03;5079264;28;20067;-75
2021/09/21 01:58:54;;;;;;;7.75;5.70;;;;;;;9.74;67.93;102269.13;5081972;28;20504;-74
2021/09/21 02:01:22;;;;;;;11.30;5.40;;;;;;;9.74;68.27;102259.06;5093372;28;20028;-74
2021/09/21 02:03:48;;;;;;;9.43;6.03;;;;;;;9.75;68.42;102252.53;5075069;28;20020;-76
2021/09/21 02:06:14;;;;;;;8.30;5.68;;;;;;;9.75;68.51;102244.34;5093281;28;20474;-76
2021/09/21 02:08:39;;;;;;;9.07;5.55;;;;;;;9.76;68.73;102231.56;5093776;28;20039;-75
2021/09/21 02:11:05;;;;;;;9.88;6.57;;;;;;;9.74;69.04;102229.09;5074631;28;20016;-76
2021/09/21 02:13:30;;;;;;;9.20;6.40;;;;;;;9.73;69.31;102227.41;5059019;28;20486;-75
2021/09/21 02:15:56;;;;;;;9.02;5.93;;;;;;;9.69;69.34;102226.22;5090013;28;20489;-75
2021/09/21 02:18:21;;;;;;;7.85;6.07;;;;;;;9.69;69.52;102225.41;5093775;28;20032;-75
2021/09/21 02:20:46;;;;;;;8.40;5.72;;;;;;;9.70;69.63;102227.06;5074710;28;20024;-76
2021/09/21 02:23:12;;;;;;;8.60;6.50;;;;;;;9.68;69.54;102221.81;5093594;28;20031;-76
2021/09/21 02:25:37;;;;;;;11.15;7.20;;;;;;;9.66;70.09;102214.97;5092450;28;20176;-75
2021/09/21 02:28:04;;;;;;;9.15;5.40;;;;;;;9.68;70.46;102218.28;5093626;28;20031;-75
2021/09/21 02:30:30;;;;;;;11.07;6.60;;;;;;;9.68;70.41;102221.00;5091839;28;20024;-75
2021/09/21 02:32:55;;;;;;;9.90;6.40;;;;;;;9.67;70.67;102224.81;5093889;28;20354;-75
2021/09/21 02:35:20;;;;;;;9.00;6.63;;;;;;;9.66;70.75;102220.44;5075182;28;20032;-74
2021/09/21 02:37:46;;;;;;;12.82;7.43;;;;;;;9.66;70.97;102218.53;5074212;28;20476;-75
2021/09/21 02:40:13;;;;;;;10.48;7.07;;;;;;;9.69;71.32;102226.22;5075368;28;20027;-75
2021/09/21 02:42:40;;;;;;;9.32;6.90;;;;;;;9.71;71.69;102229.56;5091748;28;20106;-74
2021/09/21 02:45:07;;;;;;;10.18;7.13;;;;;;;9.71;71.81;102218.66;5089056;28;20047;-75
2021/09/21 02:47:33;;;;;;;8.75;6.50;;;;;;;9.73;72.22;102211.06;5089898;28;20469;-74
2021/09/21 02:49:59;;;;;;;9.15;6.25;;;;;;;9.73;72.30;102211.06;5075232;28;20039;-74
2021/09/21 02:52:24;;;;;;;10.00;7.05;;;;;;;9.75;72.55;102210.84;5073883;28;20515;-76
2021/09/21 02:54:49;;;;;;;10.68;7.22;;;;;;;9.78;72.59;102211.22;5092974;28;20044;-74
2021/09/21 02:57:15;;;;;;;9.95;6.20;;;;;;;9.83;72.59;102217.88;5092006;28;20023;-74
2021/09/21 02:59:40;;;;;;;12.07;7.65;;;;;;;9.84;72.97;102217.59;5092998;28;20427;-74
2021/09/21 03:02:06;;;;;;;9.07;6.68;;;;;;;9.85;72.88;102218.44;5067360;28;20048;-74
2021/09/21 03:04:36;;;;;;;8.63;6.13;;;;;;;9.87;73.23;102224.47;5093014;28;20362;-74
2021/09/21 03:07:13;;;;;;;9.20;7.03;;;;;;;9.89;73.01;102223.19;5073596;28;20058;-75
2021/09/21 03:17:26;;;;;;;9.20;6.70;;;;;;;9.98;73.21;102202.72;5091941;28;20043;-74
2021/09/21 03:19:52;;;;;;;12.13;7.78;;;;;;;10.02;73.43;102197.63;5092762;28;20024;-75
2021/09/21 03:22:18;;;;;;;10.55;6.28;;;;;;;10.05;73.63;102190.88;5073172;28;20059;-75
2021/09/21 03:24:43;;;;;;;10.52;6.97;;;;;;;10.09;73.78;102192.88;5092640;28;20024;-75
2021/09/21 03:27:09;;;;;;;8.40;6.70;;;;;;;10.11;73.82;102189.94;5072521;28;20032;-75
2021/09/21 03:29:34;;;;;;;10.15;7.25;;;;;;;10.13;73.83;102198.72;5092616;28;20020;-76
2021/09/21 03:32:00;;;;;;;10.77;7.32;;;;;;;10.14;73.77;102184.00;5073453;28;20043;-74
2021/09/21 03:34:25;;;;;;;10.25;6.68;;;;;;;10.16;74.14;102174.53;5074475;28;20024;-75
2021/09/21 03:36:50;;;;;;;14.50;8.30;;;;;;;10.17;74.18;102173.44;5073554;28;20024;-75
2021/09/21 03:39:16;;;;;;;10.27;7.55;;;;;;;10.19;74.14;102171.31;5087146;28;20043;-75
2021/09/21 03:41:41;;;;;;;10.90;7.18;;;;;;;10.22;74.21;102170.84;5072759;28;20060;-75
2021/09/21 03:44:07;;;;;;;9.98;7.05;;;;;;;10.25;74.55;102169.53;5073371;28;20028;-75
2021/09/21 03:46:32;;;;;;;9.52;6.38;;;;;;;10.29;74.58;102169.94;5091741;28;20028;-74
2021/09/21 03:48:57;;;;;;;8.88;6.30;;;;;;;10.33;74.54;102171.94;5074431;28;20475;-74
2021/09/21 03:51:23;;;;;;;10.70;7.68;;;;;;;10.34;74.58;102162.72;5091410;28;20024;-75
2021/09/21 03:53:48;;;;;;;9.50;6.47;;;;;;;10.39;74.72;102156.53;5092241;28;20024;-75
2021/09/21 03:56:14;;;;;;;10.25;7.25;;;;;;;10.42;74.87;102158.78;5090577;28;20081;-75
2021/09/21 03:58:40;;;;;;;11.65;7.85;;;;;;;10.45;75.02;102158.31;5073801;28;20052;-74
2021/09/21 04:01:06;;;;;;;13.05;7.55;;;;;;;10.48;75.09;102162.47;5073642;28;20024;-75
2021/09/21 04:03:31;;;;;;;11.35;7.65;;;;;;;10.50;75.19;102158.41;5074026;28;20484;-75
2021/09/21 04:05:57;;;;;;;10.77;6.93;;;;;;;10.55;75.21;102160.41;5091797;28;20024;-75
2021/09/21 04:08:22;;;;;;;10.63;7.13;;;;;;;10.59;75.46;102162.44;5091867;28;20049;-75
2021/09/21 04:10:48;;;;;;;10.27;7.30;;;;;;;10.64;75.61;102168.00;5092629;28;20024;-75
2021/09/21 04:13:13;;;;;;;12.13;8.23;;;;;;;10.69;75.62;102163.72;5071854;28;20055;-75
2021/09/21 04:15:40;;;;;;;13.90;8.57;;;;;;;10.73;75.76;102167.63;5073053;28;20052;-75
2021/09/21 04:18:08;;;;;;;14.05;7.25;;;;;;;10.77;75.84;102166.88;5091308;28;20085;-76
2021/09/21 04:20:33;;;;;;;10.30;7.22;;;;;;;10.81;76.08;102159.06;5073964;28;20099;-76
2021/09/21 04:22:58;;;;;;;11.82;7.65;;;;;;;10.86;76.11;102153.72;5091141;28;20114;-76
2021/09/21 04:25:24;;;;;;;11.48;8.77;;;;;;;10.89;76.50;102158.69;5073771;28;20019;-76
2021/09/21 04:27:49;;;;;;;11.60;8.52;;;;;;;10.91;76.18;102156.53;5094054;28;20374;-75
2021/09/21 04:30:20;;;;;;;12.38;8.25;;;;;;;10.94;76.53;102149.75;5095833;28;20032;-75
2021/09/21 04:32:46;;;;;;;12.10;7.78;;;;;;;10.97;76.28;102154.75;5077755;28;20024;-75
2021/09/21 04:35:12;;;;;;;12.68;8.52;;;;;;;11.00;76.66;102151.53;5095862;28;20065;-76
2021/09/21 04:37:37;;;;;;;13.40;9.00;;;;;;;11.01;76.85;102140.34;5076182;28;20432;-75
2021/09/21 04:40:04;;;;;;;13.30;8.15;;;;;;;11.01;76.75;102137.63;5095718;28;20058;-76
2021/09/21 04:42:30;;;;;;;14.15;8.30;;;;;;;11.02;76.92;102139.31;5092940;28;20027;-76
2021/09/21 04:44:55;;;;;;;11.27;7.97;;;;;;;11.03;76.91;102137.41;5077648;28;20023;-75
2021/09/21 04:47:21;;;;;;;12.52;8.57;;;;;;;11.03;76.95;102138.22;5094627;28;20024;-75
2021/09/21 04:49:46;;;;;;;13.00;8.35;;;;;;;11.04;76.64;102131.69;5077449;28;20039;-75
2021/09/21 04:52:13;;;;;;;12.13;8.25;;;;;;;11.06;77.45;102134.19;5076360;28;20024;-75
2021/09/21 04:54:38;;;;;;;12.50;8.90;;;;;;;11.07;77.36;102125.72;5095130;28;20055;-75
2021/09/21 04:57:04;;;;;;;12.52;9.18;;;;;;;11.10;77.35;102127.16;5076718;28;20019;-75
2021/09/21 04:59:29;;;;;;;11.43;8.00;;;;;;;11.10;77.53;102127.16;5077381;28;20466;-75
2021/09/21 05:01:54;;;;;;;14.02;8.65;;;;;;;11.13;77.64;102134.03;5094293;28;20476;-76
2021/09/21 05:04:20;;;;;;;11.48;8.07;;;;;;;11.13;77.64;102125.84;5077088;28;20020;-75
2021/09/21 05:06:45;;;;;;;12.82;8.23;;;;;;;11.16;77.57;102130.78;5094110;28;20031;-75
2021/09/21 05:09:15;;;;;;;11.45;7.90;;;;;;;11.17;77.72;102127.00;5094192;28;20028;-75
2021/09/21 05:11:40;;;;;;;11.13;8.05;;;;;;;11.17;78.06;102127.00;5087027;28;20031;-75
2021/09/21 05:14:06;;;;;;;11.73;7.60;;;;;;;11.19;77.93;102122.97;5075857;28;20016;-75
2021/09/21 05:16:32;;;;;;;11.32;8.68;;;;;;;11.19;77.99;102122.97;5094003;28;20032;-75
2021/09/21 05:18:57;;;;;;;10.70;7.90;;;;;;;11.22;78.18;102135.31;5094877;28;20051;-75
2021/09/21 05:21:22;;;;;;;10.35;7.43;;;;;;;11.24;78.10;102122.22;5094088;28;20028;-75
2021/09/21 05:23:48;;;;;;;12.23;8.07;;;;;;;11.24;78.49;102116.75;5059926;28;20492;-76
2021/09/21 05:26:13;;;;;;;13.43;8.30;;;;;;;11.27;78.36;102116.28;5094599;28;20020;-75
2021/09/21 05:28:39;;;;;;;11.57;8.18;;;;;;;11.30;78.34;102122.06;5093583;28;20066;-75
2021/09/21 05:31:04;;;;;;;12.48;8.45;;;;;;;11.31;78.42;102128.34;5076547;28;20039;-75
2021/09/21 05:33:29;;;;;;;10.88;8.60;;;;;;;11.34;78.38;102128.69;5093687;28;20032;-76
2021/09/21 05:35:55;;;;;;;11.68;8.13;;;;;;;11.37;78.74;102127.38;5093810;28;20028;-75
2021/09/21 05:38:20;;;;;;;18.23;8.20;;;;;;;11.39;78.57;102114.31;5091357;28;20085;-75
2021/09/21 05:40:46;;;;;;;10.95;7.93;;;;;;;11.42;78.83;102108.34;5076325;28;20028;-75
2021/09/21 05:43:11;;;;;;;11.85;8.85;;;;;;;11.43;78.60;102120.09;5093410;28;20465;-75
2021/09/21 05:45:37;;;;;;;12.15;8.38;;;;;;;11.46;78.84;102112.25;5076295;28;20039;-75
2021/09/21 05:48:02;;;;;;;14.02;7.57;;;;;;;11.47;78.83;102122.09;5093462;28;20024;-75
2021/09/21 05:50:28;;;;;;;11.82;7.40;;;;;;;11.51;78.96;102117.81;5076310;28;20107;-75
2021/09/21 05:52:54;;;;;;;14.73;8.60;;;;;;;11.55;78.83;102116.22;5093402;28;20044;-75
2021/09/21 05:55:20;;;;;;;5.38;3.90;;;;;;;11.60;78.63;102122.84;5094162;28;20081;-75
2021/09/21 05:57:45;;;;;;;4.03;3.17;;;;;;;11.69;77.92;102113.16;5093534;28;20027;-75
2021/09/21 06:00:11;;;;;;;4.18;2.97;;;;;;;11.78;76.74;102117.97;5075940;28;20104;-75
2021/09/21 06:02:37;;;;;;;3.83;2.75;;;;;;;11.88;75.28;102114.59;5092221;28;20024;-76
2021/09/21 06:05:03;;;;;;;4.82;3.17;;;;;;;11.98;73.91;102108.47;5094057;28;20363;-76
2021/09/21 06:07:28;;;;;;;3.72;2.72;;;;;;;12.06;72.96;102102.56;5091245;28;20171;-75
2021/09/21 06:09:53;;;;;;;4.35;3.00;;;;;;;12.11;71.95;102093.59;5093898;28;20499;-75
2021/09/21 06:12:19;;;;;;;3.67;2.60;;;;;;;12.18;71.26;102100.53;5092133;28;20036;-75
2021/09/21 06:14:44;;;;;;;5.43;2.85;;;;;;;12.24;70.45;102098.69;5068389;28;20049;-74
2021/09/21 06:17:10;;;;;;;4.20;3.00;;;;;;;12.28;69.21;102094.38;5052289;28;20098;-75
2021/09/21 06:19:35;;;;;;;5.05;2.80;;;;;;;12.33;69.12;102086.25;5062232;28;20636;-76
2021/09/21 06:22:01;;;;;;;4.60;3.15;;;;;;;12.37;68.75;102092.84;5069786;28;20029;-76
2021/09/21 06:24:26;;;;;;;5.60;3.00;;;;;;;12.42;68.71;102094.84;5073451;28;20017;-74
2021/09/21 06:26:51;;;;;;;6.15;3.38;;;;;;;12.45;67.98;102077.91;5070246;28;20484;-75
2021/09/21 06:29:17;;;;;;;5.82;3.03;;;;;;;12.48;67.77;102076.59;5071674;28;20029;-75
2021/09/21 06:31:43;;;;;;;5.78;3.00;;;;;;;12.50;67.63;102077.97;5071808;28;20464;-75
2021/09/21 06:34:08;;;;;;;3.42;2.55;;;;;;;12.54;67.63;102072.81;5070242;28;20103;-75
2021/09/21 06:36:33;;;;;;;3.40;2.95;;;;;;;12.56;67.18;102073.41;5062395;28;20033;-75
2021/09/21 06:38:59;;;;;;;4.18;3.05;;;;;;;12.59;67.10;102067.41;5065861;28;20500;-75
2021/09/21 06:41:24;;;;;;;4.57;2.92;;;;;;;12.62;66.87;102058.69;5060751;28;20036;-75
2021/09/21 06:43:50;;;;;;;4.70;2.88;;;;;;;12.66;66.47;102057.09;5052352;28;20091;-76
2021/09/21 06:46:15;;;;;;;5.50;3.60;;;;;;;12.68;66.50;102054.91;5058870;28;20031;-75
2021/09/21 06:48:41;;;;;;;5.30;2.92;;;;;;;12.72;66.35;102052.50;5067969;28;20038;-76
2021/09/21 06:51:07;;;;;;;4.00;2.70;;;;;;;12.76;66.39;102062.66;5071043;28;20466;-76
2021/09/21 06:53:32;;;;;;;4.35;3.28;;;;;;;12.78;66.54;102060.50;5065651;28;20032;-75
2021/09/21 06:55:57;;;;;;;4.63;3.20;;;;;;;12.81;66.54;102054.50;5060100;28;20029;-75
2021/09/21 06:58:23;;;;;;;5.47;3.15;;;;;;;12.83;66.30;102052.34;5055191;28;20020;-75
2021/09/21 07:00:49;;;;;;;6.28;2.95;;;;;;;12.86;66.33;102057.31;5062115;28;20031;-76
2021/09/21 07:03:14;;;;;;;4.93;3.00;;;;;;;12.91;66.65;102044.78;5058954;28;20104;-76
2021/09/21 07:05:39;;;;;;;5.85;2.47;;;;;;;12.91;66.30;102036.56;5046444;28;20393;-76
2021/09/21 07:08:05;;;;;;;5.50;3.25;;;;;;;12.94;66.10;102052.47;5061922;28;20033;-76
2021/09/21 07:10:30;;;;;;;3.83;3.30;;;;;;;12.97;66.41;102054.69;5060164;28;20390;-75
2021/09/21 07:12:56;;;;;;;4.00;2.80;;;;;;;12.98;65.56;102043.44;5045909;28;20112;-76
2021/09/21 07:15:22;;;;;;;6.60;3.25;;;;;;;13.00;65.38;102048.69;5065112;28;20040;-76
2021/09/21 07:17:51;;;;;;;4.60;3.15;;;;;;;13.04;65.47;102052.53;5053414;28;20530;-75
2021/09/21 07:20:16;;;;;;;4.80;3.03;;;;;;;13.08;65.61;102056.44;5064010;28;20037;-76
2021/09/21 07:22:42;;;;;;;4.43;3.00;;;;;;;13.12;65.68;102052.06;5041268;28;20029;-75
2021/09/21 07:25:09;;;;;;;6.55;4.10;;;;;;;13.17;65.47;102046.63;5066170;28;20677;-76
2021/09/21 07:27:34;;;;;;;4.18;3.10;;;;;;;13.18;65.54;102048.31;5066143;28;20409;-76
2021/09/21 07:30:02;;;;;;;5.82;3.28;;;;;;;13.22;65.78;102038.47;5051640;28;20029;-75
2021/09/21 07:32:27;;;;;;;6.00;3.40;;;;;;;13.23;65.88;102056.56;5065735;28;20037;-76
2021/09/21 07:34:53;;;;;;;4.28;2.83;;;;;;;13.22;65.36;102038.47;5042622;28;20025;-76
2021/09/21 07:37:19;;;;;;;5.53;2.88;;;;;;;13.18;65.42;102034.63;5061225;28;20025;-76
2021/09/21 07:39:45;;;;;;;5.18;3.08;;;;;;;13.16;65.89;102034.03;5060416;28;20508;-76
2021/09/21 07:42:11;;;;;;;4.63;3.13;;;;;;;13.16;66.00;102034.03;5069486;28;20032;-76
2021/09/21 07:44:37;;;;;;;5.28;2.80;;;;;;;13.14;66.01;102044.44;5043282;28;20021;-76
2021/09/21 07:47:02;;;;;;;5.18;3.35;;;;;;;13.14;66.04;102036.22;5072357;28;20024;-76
2021/09/21 07:49:28;;;;;;;4.03;3.28;;;;;;;13.17;66.06;102040.34;5069995;28;20036;-76
2021/09/21 07:51:53;;;;;;;4.65;3.53;;;;;;;13.21;66.21;102036.84;5071374;28;20492;-76
2021/09/21 07:54:19;;;;;;;5.00;3.20;;;;;;;13.23;65.95;102044.78;5067698;28;20413;-76
2021/09/21 07:56:45;;;;;;;4.28;3.55;;;;;;;13.27;65.52;102045.94;5058122;28;20375;-76
2021/09/21 07:59:11;;;;;;;5.47;4.15;;;;;;;13.30;65.32;102043.50;5063873;28;20111;-76
2021/09/21 08:01:37;;;;;;;6.45;3.83;;;;;;;13.31;65.34;102058.88;5056900;28;20434;-76
2021/09/21 08:04:03;;;;;;;4.00;3.17;;;;;;;13.35;65.58;102041.91;5067927;28;20033;-76
2021/09/21 08:06:29;;;;;;;5.35;3.45;;;;;;;13.35;65.65;102039.16;5076276;28;20044;-75
2021/09/21 08:08:55;;;;;;;4.50;3.30;;;;;;;13.35;65.76;102037.25;5065146;28;20032;-75
2021/09/21 08:11:21;;;;;;;5.32;4.03;;;;;;;13.37;65.65;102047.94;5075927;28;20028;-75
2021/09/21 08:13:47;;;;;;;5.07;3.53;;;;;;;13.39;65.96;102045.75;5048216;28;20535;-76
2021/09/21 08:16:12;;;;;;;6.05;4.18;;;;;;;13.39;65.79;102043.03;5094768;28;20059;-76
2021/09/21 08:18:37;;;;;;;4.13;3.47;;;;;;;13.39;65.40;102048.50;5095062;28;20028;-76
2021/09/21 08:21:03;;;;;;;5.55;3.58;;;;;;;13.37;65.29;102036.97;5096115;28;20027;-75
2021/09/21 08:23:28;;;;;;;5.65;3.72;;;;;;;13.39;65.28;102032.88;5095142;28;20385;-76
2021/09/21 08:25:54;;;;;;;6.57;4.22;;;;;;;13.42;65.64;102031.53;5096137;28;20020;-75
2021/09/21 08:28:19;;;;;;;6.70;3.83;;;;;;;13.42;65.96;102031.53;5095279;28;20046;-76
2021/09/21 08:30:44;;;;;;;6.32;3.65;;;;;;;13.45;66.00;102036.50;5081600;28;20372;-75
2021/09/21 08:33:10;;;;;;;4.80;3.67;;;;;;;13.45;65.86;102025.53;5060619;28;20381;-76
2021/09/21 08:35:35;;;;;;;5.03;3.47;;;;;;;13.46;65.69;102038.16;5077595;28;20027;-76
2021/09/21 08:38:01;;;;;;;5.00;3.30;;;;;;;13.46;65.96;102035.41;5095116;28;20023;-77
2021/09/21 08:40:26;;;;;;;6.13;4.38;;;;;;;13.42;66.12;102035.13;5096080;28;20019;-75
2021/09/21 08:42:52;;;;;;;7.05;4.45;;;;;;;13.36;66.80;102043.56;5094878;28;20081;-75
2021/09/21 08:45:17;;;;;;;6.63;4.57;;;;;;;13.27;67.34;102043.22;5095667;28;20024;-74
2021/09/21 08:47:42;;;;;;;7.82;4.15;;;;;;;13.22;67.96;102041.22;5094836;28;20012;-75
2021/09/21 08:50:09;;;;;;;9.25;4.20;;;;;;;13.15;68.26;102037.88;5077583;28;20056;-76
2021/09/21 08:52:43;;;;;;;6.50;4.60;;;;;;;13.10;68.55;102040.56;5076486;28;20107;-75
2021/09/21 08:55:09;;;;;;;10.38;4.25;;;;;;;13.04;68.95;102036.97;5061938;28;20500;-75
2021/09/21 08:57:35;;;;;;;7.32;3.80;;;;;;;13.01;69.62;102015.59;5093245;28;20028;-74
2021/09/21 09:00:01;;;;;;;8.02;4.75;;;;;;;12.98;69.78;102018.81;5094837;28;20050;-73
2021/09/21 09:02:27;;;;;;;6.55;4.30;;;;;;;12.93;70.30;102007.84;5077501;28;20012;-75
2021/09/21 09:04:59;;;;;;;8.75;4.60;;;;;;;12.96;70.81;102017.41;5076151;28;20028;-73
2021/09/21 09:07:27;;;;;;;5.90;4.28;;;;;;;12.99;71.23;102011.47;5077382;28;20045;-74
2021/09/21 09:10:00;;;;;;;6.43;4.25;;;;;;;13.00;71.24;102002.16;5092811;28;20566;-73
2021/09/21 09:12:33;;;;;;;7.78;4.75;;;;;;;13.00;71.19;102004.88;5063570;28;20020;-74
2021/09/21 09:15:07;;;;;;;7.57;4.55;;;;;;;12.99;71.41;102003.25;5076312;28;20040;-74
2021/09/21 09:17:32;;;;;;;7.43;4.20;;;;;;;12.96;71.09;102003.72;5065625;28;20115;-74
2021/09/21 09:19:58;;;;;;;7.47;4.55;;;;;;;12.95;71.23;102010.31;5075811;28;20023;-74
2021/09/21 09:22:25;;;;;;;6.53;3.72;;;;;;;12.96;71.27;101984.56;5094084;28;20020;-74
2021/09/21 09:24:51;;;;;;;8.63;3.60;;;;;;;12.97;69.66;101988.97;5075957;28;20028;-74
2021/09/21 09:27:17;;;;;;;6.68;4.38;;;;;;;13.00;70.08;101986.53;5074453;28;20103;-74
2021/09/21 09:29:57;;;;;;;4.97;3.35;;;;;;;13.02;70.16;101987.09;5094285;28;20097;-73
2021/09/21 09:32:23;;;;;;;7.43;3.03;;;;;;;13.07;69.39;101980.88;5094936;28;20020;-74
2021/09/21 09:34:49;;;;;;;3.65;2.83;;;;;;;13.11;68.20;101971.03;5084558;28;20055;-74
2021/09/21 09:37:14;;;;;;;4.13;3.00;;;;;;;13.13;67.74;101968.84;5076403;28;20428;-73
2021/09/21 09:39:41;;;;;;;4.80;2.80;;;;;;;13.15;67.96;101979.53;5076052;28;20034;-73
2021/09/21 09:42:08;;;;;;;5.55;3.53;;;;;;;13.15;68.14;101977.63;5076651;28;20031;-73
2021/09/21 09:44:33;;;;;;;6.68;4.25;;;;;;;13.15;68.45;101983.13;5075787;28;20023;-74
2021/09/21 09:47:04;;;;;;;7.65;3.33;;;;;;;13.11;69.00;101980.06;5059689;28;20024;-74
2021/09/21 09:49:32;;;;;;;6.30;3.50;;;;;;;13.04;70.24;101964.94;5093575;28;20400;-74
2021/09/21 09:52:12;;;;;;;8.13;4.25;;;;;;;13.02;70.83;101961.66;5093528;28;20107;-74
2021/09/21 09:54:39;;;;;;;8.40;4.20;;;;;;;13.07;71.49;101976.22;5092288;28;20032;-74
2021/09/21 09:57:04;;;;;;;9.40;4.38;;;;;;;13.14;71.44;101947.78;5093468;28;20030;-74
2021/09/21 09:59:30;;;;;;;6.80;4.35;;;;;;;13.19;72.15;101934.94;5075349;28;20024;-74
2021/09/21 10:01:55;;;;;;;5.85;3.60;;;;;;;13.28;72.27;101938.84;5076265;28;20501;-74
2021/09/21 10:04:21;;;;;;;6.43;4.10;;;;;;;13.40;72.03;101935.13;5093442;28;20031;-74
2021/09/21 10:06:46;;;;;;;8.07;4.22;;;;;;;13.49;71.85;101925.28;5075896;28;20024;-75
2021/09/21 10:09:12;;;;;;;6.90;4.38;;;;;;;13.52;72.01;101928.31;5074771;28;20028;-74
2021/09/21 10:11:37;;;;;;;6.13;4.13;;;;;;;13.52;72.36;101935.72;5075934;28;20028;-75
2021/09/21 10:14:03;;;;;;;9.48;4.50;;;;;;;13.50;72.60;101929.69;5074826;28;20048;-74
2021/09/21 10:16:29;;;;;;;7.05;4.45;;;;;;;13.43;72.99;101934.59;5093235;28;20071;-73
2021/09/21 10:18:55;;;;;;;9.60;5.57;;;;;;;13.35;73.58;101935.91;5074987;28;20060;-75
2021/09/21 10:21:30;;;;;;;7.38;4.28;;;;;;;13.27;74.24;101926.25;5093712;28;20015;-75
2021/09/21 10:23:59;;;;;;;11.52;5.32;;;;;;;13.20;74.76;101920.16;5092346;28;20429;-75
2021/09/21 10:26:25;;;;;;;8.63;4.68;;;;;;;13.17;75.15;101920.69;5072966;28;20032;-75
2021/09/21 10:28:51;;;;;;;8.52;5.05;;;;;;;13.17;75.37;101922.59;5092322;28;20381;-75
2021/09/21 10:31:18;;;;;;;9.23;4.00;;;;;;;13.14;76.00;101920.38;5093671;28;20020;-75
2021/09/21 10:33:45;;;;;;;10.07;5.15;;;;;;;13.12;76.79;101909.69;5074543;28;20032;-74
2021/09/21 10:36:18;;;;;;;5.85;4.38;;;;;;;13.18;77.09;101916.06;5058841;28;20031;-74
2021/09/21 10:38:57;;;;;;;8.27;4.10;;;;;;;13.21;77.56;101913.59;5073474;28;20034;-75
2021/09/21 10:41:23;;;;;;;5.30;3.40;;;;;;;13.17;77.86;101914.38;5063110;28;20111;-74
2021/09/21 10:44:05;;;;;;;7.90;4.90;;;;;;;13.17;77.90;101920.69;5092667;28;20372;-74
2021/09/21 10:46:41;;;;;;;;;;;;;;;13.21;78.04;101902.66;5081553;28;20024;-75
2021/09/21 10:49:06;;;;;;;4.40;3.47;;;;;;;13.20;78.10;101887.28;5092310;28;19912;-74
2021/09/21 10:51:31;;;;;;;7.05;3.67;;;;;;;13.22;78.64;101889.78;5093321;28;20057;-74
2021/09/21 10:54:01;;;;;;;7.68;4.43;;;;;;;13.22;78.89;101879.63;5091675;28;20016;-75
2021/09/21 10:56:27;;;;;;;11.27;3.97;;;;;;;13.24;79.07;101873.91;5093052;28;20031;-73
2021/09/21 10:58:53;;;;;;;5.30;3.45;;;;;;;13.26;79.13;101890.94;5091928;28;20096;-74
2021/09/21 11:01:19;;;;;;;6.47;3.92;;;;;;;13.28;79.20;101878.59;5093111;28;20028;-74
2021/09/21 11:03:44;;;;;;;4.75;2.97;;;;;;;13.28;79.11;101875.84;5073948;28;20714;-74
2021/09/21 11:06:12;;;;;;;6.55;4.32;;;;;;;13.30;79.15;101870.94;5093061;28;20077;-74
2021/09/21 11:08:38;;;;;;;8.05;3.22;;;;;;;13.31;79.38;101867.13;5091860;28;20032;-75
2021/09/21 11:11:04;;;;;;;9.00;3.58;;;;;;;13.35;79.45;101861.13;5083287;28;20043;-74
2021/09/21 11:13:34;;;;;;;8.77;3.28;;;;;;;13.38;79.83;101877.03;5087907;28;20018;-74
2021/09/21 11:16:01;;;;;;;4.47;3.05;;;;;;;13.41;79.99;101871.00;5074676;28;20048;-74
2021/09/21 11:18:27;;;;;;;7.15;3.75;;;;;;;13.40;79.98;101874.84;5092005;28;20271;-74
2021/09/21 11:20:57;;;;;;;7.20;3.38;;;;;;;13.44;80.15;101859.50;5092850;28;20393;-74
2021/09/21 11:23:24;;;;;;;8.93;3.70;;;;;;;13.46;80.65;101851.88;5068785;28;20024;-75
2021/09/21 11:25:49;;;;;;;9.77;3.67;;;;;;;13.52;80.68;101875.44;5074414;28;20028;-74
2021/09/21 11:28:15;;;;;;;7.38;4.25;;;;;;;13.54;80.62;101856.84;5071234;28;20040;-74
2021/09/21 11:30:41;;;;;;;7.35;3.63;;;;;;;13.56;80.60;101851.91;5091165;28;20096;-75
2021/09/21 11:33:14;;;;;;;5.60;3.53;;;;;;;13.56;80.61;101860.13;5092943;28;20035;-74